Time;durP1;ratioP1;P1;durP2;ratioP2;P2;SDS_P1;SDS_P2;PMS_P1;PMS_P2;Temp;Humidity;BMP_temperature;BMP_pressure;BME280_temperature;BME280_humidity;BME280_pressure;Samples;Min_cycle;Max_cycle;Signal;HPM_P1;HPM_P2
2021/08/16 00:01:53;;;;;;;23.92;11.73;;;;;;;16.41;88.35;94592.23;1726376;81;21112;-55
2021/08/16 00:04:19;;;;;;;17.25;11.75;;;;;;;16.38;88.30;94591.83;1728974;82;21447;-55
2021/08/16 00:06:47;;;;;;;21.17;13.22;;;;;;;16.36;88.44;94592.94;1728532;82;21050;-55
2021/08/16 00:09:15;;;;;;;21.23;11.90;;;;;;;16.34;88.34;94588.48;1739772;81;21051;-57
2021/08/16 00:11:42;;;;;;;23.25;12.55;;;;;;;16.30;88.17;94585.12;1686271;82;21005;-55
2021/08/16 00:14:12;;;;;;;26.33;11.48;;;;;;;16.26;88.27;94588.00;1699215;83;21917;-55
2021/08/16 00:16:40;;;;;;;20.32;12.73;;;;;;;16.24;88.36;94586.34;1702361;83;20971;-56
2021/08/16 00:19:07;;;;;;;18.60;10.93;;;;;;;16.21;88.60;94581.13;1686324;83;20970;-55
2021/08/16 00:21:36;;;;;;;22.27;12.60;;;;;;;16.23;88.75;94581.39;1692546;83;21025;-56
2021/08/16 00:24:03;;;;;;;18.50;12.55;;;;;;;16.26;88.93;94583.20;1706014;83;21065;-58
2021/08/16 00:26:32;;;;;;;19.32;13.43;;;;;;;16.24;88.58;94584.31;1699713;82;21068;-56
2021/08/16 00:28:59;;;;;;;14.93;10.88;;;;;;;16.20;88.55;94587.92;1682262;83;21092;-57
2021/08/16 00:31:28;;;;;;;15.50;10.75;;;;;;;16.24;88.74;94587.09;1699765;83;21548;-56
2021/08/16 00:33:56;;;;;;;16.17;10.28;;;;;;;16.24;88.65;94583.56;1702997;83;20978;-55
2021/08/16 00:36:23;;;;;;;24.35;12.18;;;;;;;16.22;88.54;94589.59;1702499;83;21048;-56
2021/08/16 00:38:50;;;;;;;21.45;12.25;;;;;;;16.16;88.45;94576.28;1707868;82;21152;-54
2021/08/16 00:41:20;;;;;;;21.42;11.25;;;;;;;16.13;88.46;94581.39;1700792;84;20948;-56
2021/08/16 00:43:48;;;;;;;20.50;11.22;;;;;;;16.09;88.44;94579.45;1703813;83;20930;-56
2021/08/16 00:46:16;;;;;;;20.52;11.25;;;;;;;16.04;88.32;94578.77;1683713;83;21021;-55
2021/08/16 00:48:45;;;;;;;21.75;11.35;;;;;;;15.96;88.28;94582.45;1704546;83;21021;-57
2021/08/16 00:51:13;;;;;;;18.27;11.12;;;;;;;15.87;88.63;94575.02;1705115;83;21916;-57
2021/08/16 00:53:44;;;;;;;20.25;11.83;;;;;;;15.84;88.95;94582.93;1703529;83;20978;-56
2021/08/16 00:56:12;;;;;;;20.75;12.75;;;;;;;15.78;89.14;94576.55;1704562;82;21062;-56
2021/08/16 00:58:41;;;;;;;23.77;11.25;;;;;;;15.75;89.35;94571.95;1713331;83;20997;-56
2021/08/16 01:01:11;;;;;;;25.70;12.70;;;;;;;15.76;89.61;94570.70;1711679;83;20950;-56
2021/08/16 01:03:38;;;;;;;16.57;11.18;;;;;;;15.76;89.72;94565.16;1716476;83;21229;-56
2021/08/16 01:06:05;;;;;;;12.07;10.85;;;;;;;15.77;89.91;94565.30;1713720;83;21044;-56
2021/08/16 01:08:34;;;;;;;18.00;11.28;;;;;;;15.77;89.88;94563.91;1714326;82;21085;-56
2021/08/16 01:11:01;;;;;;;16.40;10.80;;;;;;;15.76;89.63;94569.95;1716867;81;21065;-56
2021/08/16 01:13:28;;;;;;;23.00;11.53;;;;;;;15.75;89.56;94567.05;1730668;82;21061;-56
2021/08/16 01:16:03;;;;;;;19.05;11.75;;;;;;;15.73;89.33;94567.52;1728882;82;22040;-56
2021/08/16 01:18:32;;;;;;;19.55;11.30;;;;;;;15.71;89.30;94568.63;1737684;82;21513;-56
2021/08/16 01:21:02;;;;;;;19.52;11.65;;;;;;;15.70;89.24;94571.27;1728498;81;20970;-54
2021/08/16 01:23:28;;;;;;;17.62;12.10;;;;;;;15.68;89.17;94564.66;1728387;81;20974;-55
2021/08/16 01:25:55;;;;;;;20.30;12.28;;;;;;;15.67;89.09;94561.75;1678683;85;21501;-56
2021/08/16 01:28:22;;;;;;;17.75;10.82;;;;;;;15.68;89.11;94566.05;1706513;84;21164;-55
2021/08/16 01:30:55;;;;;;;21.20;11.48;;;;;;;15.68;89.13;94568.82;1705738;83;21051;-56
2021/08/16 01:33:23;;;;;;;16.23;11.08;;;;;;;15.66;89.12;94570.70;1691757;83;21086;-56
2021/08/16 01:35:50;;;;;;;21.52;12.23;;;;;;;15.64;89.23;94574.59;1650728;84;21427;-56
2021/08/16 01:38:30;;;;;;;18.50;12.35;;;;;;;15.65;89.20;94570.57;1696349;84;21499;-55
2021/08/16 01:40:57;;;;;;;15.00;11.00;;;;;;;15.67;88.84;94560.36;1701156;84;21531;-56
2021/08/16 01:43:24;;;;;;;16.05;11.05;;;;;;;15.68;88.58;94566.05;1681641;83;20955;-56
2021/08/16 01:45:52;;;;;;;20.60;10.85;;;;;;;15.69;88.44;94557.89;1688300;83;21014;-56
2021/08/16 01:48:19;;;;;;;18.45;11.30;;;;;;;15.71;88.32;94545.69;1698492;83;21082;-56
2021/08/16 01:50:47;;;;;;;15.48;11.73;;;;;;;15.71;88.35;94538.12;1708617;83;21057;-57
2021/08/16 01:53:13;;;;;;;13.72;10.45;;;;;;;15.77;88.43;94536.16;1659745;84;21151;-56
2021/08/16 01:55:41;;;;;;;14.28;10.05;;;;;;;15.79;88.00;94530.92;1651171;86;20946;-56
2021/08/16 01:58:09;;;;;;;14.20;9.90;;;;;;;15.75;87.68;94537.28;1651259;86;21521;-55
2021/08/16 02:00:36;;;;;;;17.80;11.03;;;;;;;15.70;87.63;94531.05;1649283;87;21045;-56
2021/08/16 02:03:04;;;;;;;14.03;11.18;;;;;;;15.69;87.71;94528.77;1649086;86;21045;-55
2021/08/16 02:05:31;;;;;;;15.50;12.28;;;;;;;15.69;87.77;94526.75;1649219;86;21950;-56
2021/08/16 02:08:01;;;;;;;15.98;10.60;;;;;;;15.69;87.88;94536.45;1647925;86;20994;-56
2021/08/16 02:10:30;;;;;;;17.07;9.95;;;;;;;15.66;87.70;94534.66;1653965;85;21513;-56
2021/08/16 02:12:57;;;;;;;21.97;10.45;;;;;;;15.54;87.95;94523.27;1648000;87;21546;-56
2021/08/16 02:15:24;;;;;;;21.33;11.50;;;;;;;15.47;88.24;94520.91;1652313;86;21066;-56
2021/08/16 02:17:51;;;;;;;18.17;11.22;;;;;;;15.44;88.56;94513.56;1651279;87;21156;-56
2021/08/16 02:20:19;;;;;;;18.62;10.58;;;;;;;15.44;88.73;94509.41;1651071;87;21065;-56
2021/08/16 02:22:46;;;;;;;13.72;10.32;;;;;;;15.44;88.46;94508.02;1651347;86;21023;-56
2021/08/16 02:25:12;;;;;;;15.88;10.65;;;;;;;15.41;88.36;94511.77;1649442;85;21129;-56
2021/08/16 02:27:43;;;;;;;19.50;10.48;;;;;;;15.36;88.68;94511.05;1643486;87;21447;-56
2021/08/16 02:30:13;;;;;;;18.25;11.53;;;;;;;15.34;88.90;94515.56;1651575;87;21117;-56
2021/08/16 02:32:39;;;;;;;18.50;10.35;;;;;;;15.27;89.24;94515.92;1650761;86;20976;-56
2021/08/16 02:35:08;;;;;;;17.35;10.90;;;;;;;15.22;89.43;94517.36;1676178;84;21038;-56
2021/08/16 02:37:35;;;;;;;17.73;10.90;;;;;;;15.18;89.62;94504.98;1683233;85;21059;-56
2021/08/16 02:40:06;;;;;;;19.07;10.15;;;;;;;15.17;89.63;94506.97;1683566;85;21058;-56
2021/08/16 02:42:33;;;;;;;16.87;10.10;;;;;;;15.16;89.49;94502.67;1683602;85;21116;-56
2021/08/16 02:44:59;;;;;;;15.95;10.85;;;;;;;15.16;89.51;94515.14;1685529;84;21247;-56
2021/08/16 02:47:26;;;;;;;16.85;11.48;;;;;;;15.13;89.37;94521.66;1671586;84;21004;-55
2021/08/16 02:49:54;;;;;;;17.73;9.85;;;;;;;15.11;89.66;94523.37;1672933;85;21110;-55
2021/08/16 02:52:20;;;;;;;14.20;10.32;;;;;;;15.12;89.69;94521.52;1683404;85;21597;-55
2021/08/16 02:54:49;;;;;;;12.88;10.70;;;;;;;15.12;89.51;94522.91;1680353;85;20956;-57
2021/08/16 02:57:18;;;;;;;15.60;11.20;;;;;;;15.11;89.32;94521.98;1685012;84;21053;-55
2021/08/16 02:59:45;;;;;;;14.83;9.88;;;;;;;15.11;89.44;94518.60;1678565;83;21015;-57
2021/08/16 03:02:12;;;;;;;14.58;10.25;;;;;;;15.13;89.37;94523.04;1661889;85;21088;-56
2021/08/16 03:04:38;;;;;;;13.80;9.83;;;;;;;15.17;89.16;94533.30;1673213;85;20983;-56
2021/08/16 03:07:05;;;;;;;16.35;11.12;;;;;;;15.19;88.86;94530.80;1684678;85;21230;-56
2021/08/16 03:09:32;;;;;;;20.82;10.85;;;;;;;15.18;88.68;94523.73;1674414;85;21078;-56
2021/08/16 03:12:00;;;;;;;15.18;11.15;;;;;;;15.17;88.64;94522.21;1651444;84;21110;-56
2021/08/16 03:14:27;;;;;;;15.32;9.93;;;;;;;15.20;88.53;94515.70;1723528;82;21036;-56
2021/08/16 03:16:54;;;;;;;12.30;9.58;;;;;;;15.22;88.42;94520.14;1715537;82;21110;-57
2021/08/16 03:19:22;;;;;;;14.85;11.12;;;;;;;15.25;88.52;94510.88;1713598;82;21136;-56
2021/08/16 03:21:50;;;;;;;15.15;11.12;;;;;;;15.29;88.44;94513.46;1711688;82;20964;-57
2021/08/16 03:24:16;;;;;;;10.90;8.60;;;;;;;15.32;88.24;94517.42;1708659;82;21003;-56
2021/08/16 03:26:46;;;;;;;21.50;15.60;;;;;;;15.30;88.09;94521.30;1712788;82;21038;-57
2021/08/16 03:29:13;;;;;;;29.05;19.98;;;;;;;15.23;88.13;94525.84;1715865;82;21172;-56
2021/08/16 03:31:39;;;;;;;17.62;12.35;;;;;;;15.19;88.26;94525.90;1718404;82;21142;-57
2021/08/16 03:34:06;;;;;;;17.77;12.58;;;;;;;15.13;88.46;94525.03;1715396;82;21042;-57
2021/08/16 03:36:33;;;;;;;19.27;13.80;;;;;;;15.10;88.68;94524.61;1712956;83;20990;-57
2021/08/16 03:39:00;;;;;;;18.12;11.97;;;;;;;15.05;88.86;94512.23;1714239;82;20941;-57
2021/08/16 03:41:26;;;;;;;21.77;11.70;;;;;;;15.05;89.07;94517.77;1714382;83;21027;-56
2021/08/16 03:43:53;;;;;;;19.55;13.43;;;;;;;15.04;89.15;94514.83;1708426;82;21136;-57
2021/08/16 03:46:21;;;;;;;15.95;12.18;;;;;;;15.04;89.38;94513.44;1712633;82;21038;-56
2021/08/16 03:48:48;;;;;;;20.55;15.20;;;;;;;15.07;89.14;94509.73;1706439;83;20994;-56
2021/08/16 03:51:15;;;;;;;15.75;12.80;;;;;;;15.08;89.01;94512.64;1707943;83;21447;-57
2021/08/16 03:53:42;;;;;;;26.70;12.18;;;;;;;15.06;88.96;94510.98;1713331;82;21085;-57
2021/08/16 03:56:10;;;;;;;31.55;12.05;;;;;;;15.08;89.07;94508.48;1714623;83;21192;-56
2021/08/16 03:58:41;;;;;;;17.42;11.40;;;;;;;15.12;89.00;94513.81;1714742;83;21451;-59
2021/08/16 04:01:09;;;;;;;18.75;11.35;;;;;;;15.13;89.06;94500.88;1733737;82;21530;-57
2021/08/16 04:03:38;;;;;;;24.45;12.40;;;;;;;15.16;89.35;94496.39;1728842;81;21488;-57
2021/08/16 04:06:05;;;;;;;24.15;11.70;;;;;;;15.27;89.59;94495.14;1728743;81;21505;-57
2021/08/16 04:08:33;;;;;;;32.20;12.45;;;;;;;15.40;89.32;94494.22;1730416;81;21125;-56
2021/08/16 04:11:00;;;;;;;37.00;20.48;;;;;;;15.51;89.02;94488.83;1713134;82;20974;-57
2021/08/16 04:13:27;;;;;;;38.63;25.50;;;;;;;15.58;88.67;94487.77;1714192;82;21477;-57
2021/08/16 04:15:54;;;;;;;34.75;26.25;;;;;;;15.67;88.49;94491.80;1715604;83;21080;-56
2021/08/16 04:18:21;;;;;;;22.07;15.38;;;;;;;15.77;88.43;94488.27;1711755;83;21076;-56
2021/08/16 04:20:48;;;;;;;19.30;15.20;;;;;;;15.90;88.10;94489.42;1707709;83;21142;-56
2021/08/16 04:23:15;;;;;;;30.25;21.27;;;;;;;16.00;87.66;94476.94;1690575;83;21001;-57
2021/08/16 04:25:42;;;;;;;28.67;23.12;;;;;;;16.09;87.48;94472.61;1709720;83;21077;-57
2021/08/16 04:28:09;;;;;;;57.85;38.92;;;;;;;16.23;86.99;94475.91;1706771;83;21084;-57
2021/08/16 04:30:35;;;;;;;58.95;45.65;;;;;;;16.29;86.20;94478.11;1706491;83;20996;-57
2021/08/16 04:33:02;;;;;;;53.78;43.15;;;;;;;16.32;86.17;94478.51;1710553;83;21032;-57
2021/08/16 04:35:29;;;;;;;55.28;42.45;;;;;;;16.37;85.81;94486.92;1705679;83;20950;-56
2021/08/16 04:37:57;;;;;;;48.33;32.23;;;;;;;16.43;85.57;94488.38;1700654;83;21005;-57
2021/08/16 04:40:24;;;;;;;34.05;26.17;;;;;;;16.43;85.49;94487.77;1708057;82;21076;-56
2021/08/16 04:42:51;;;;;;;35.17;24.90;;;;;;;16.44;85.58;94486.51;1716491;81;21056;-57
2021/08/16 04:45:18;;;;;;;38.45;23.32;;;;;;;16.48;85.79;94494.59;1704741;83;21109;-56
2021/08/16 04:47:47;;;;;;;41.92;21.20;;;;;;;16.55;85.92;94499.73;1705992;82;21012;-55
2021/08/16 04:50:16;;;;;;;40.20;16.05;;;;;;;16.60;85.84;94494.84;1693857;83;21019;-55
2021/08/16 04:52:43;;;;;;;27.25;14.45;;;;;;;16.63;85.79;94492.47;1691254;83;21098;-57
2021/08/16 04:55:11;;;;;;;44.23;16.80;;;;;;;16.70;85.69;94494.82;1696582;83;21071;-58
2021/08/16 04:57:40;;;;;;;27.52;14.35;;;;;;;16.76;85.66;94490.06;1696222;83;21416;-58
2021/08/16 05:00:11;;;;;;;20.02;13.43;;;;;;;16.90;85.41;94491.95;1695343;83;20988;-55
2021/08/16 05:02:39;;;;;;;41.23;17.80;;;;;;;16.97;85.15;94493.66;1690078;84;21475;-55
2021/08/16 05:05:14;;;;;;;44.30;20.52;;;;;;;17.04;84.90;94499.36;1682410;84;20978;-55
2021/08/16 05:07:47;;;;;;;36.88;21.25;;;;;;;17.13;84.69;94510.30;1687164;83;21532;-56
2021/08/16 05:10:14;;;;;;;54.93;31.05;;;;;;;17.24;84.37;94515.95;1688050;84;21154;-56
2021/08/16 05:12:42;;;;;;;62.33;31.68;;;;;;;17.26;84.24;94510.02;1674973;84;21110;-55
2021/08/16 05:15:11;;;;;;;57.98;34.58;;;;;;;17.30;84.35;94516.10;1652031;85;21050;-58
2021/08/16 05:17:41;;;;;;;70.05;35.13;;;;;;;17.39;84.32;94511.00;1651673;85;21032;-57
2021/08/16 05:20:10;;;;;;;63.42;36.58;;;;;;;17.49;84.14;94512.34;1654147;86;21225;-57
2021/08/16 05:22:39;;;;;;;43.73;26.82;;;;;;;17.57;84.16;94528.07;1711295;83;21462;-57
2021/08/16 05:25:09;;;;;;;28.67;18.70;;;;;;;17.65;84.05;94520.77;1723282;81;21055;-57
2021/08/16 05:27:37;;;;;;;28.90;15.68;;;;;;;17.77;83.69;94536.89;1721192;82;21457;-58
2021/08/16 05:30:06;;;;;;;21.33;11.60;;;;;;;17.88;83.21;94520.25;1715285;82;21049;-58
2021/08/16 05:32:33;;;;;;;34.88;11.75;;;;;;;17.96;82.34;94514.33;1719129;82;21018;-57
2021/08/16 05:35:00;;;;;;;19.05;13.05;;;;;;;18.04;81.96;94529.31;1723195;82;21811;-58
2021/08/16 05:37:27;;;;;;;20.57;13.32;;;;;;;18.16;81.86;94522.53;1728400;82;21019;-56
2021/08/16 05:39:54;;;;;;;25.82;15.23;;;;;;;18.30;81.79;94523.09;1729020;82;21561;-58
2021/08/16 05:42:24;;;;;;;30.95;13.53;;;;;;;18.51;81.54;94520.26;1692634;82;21084;-58
2021/08/16 05:44:58;;;;;;;23.60;11.80;;;;;;;18.73;81.13;94510.53;1663775;84;21576;-59
2021/08/16 05:47:26;;;;;;;20.37;14.18;;;;;;;18.96;80.07;94513.45;1706180;83;21004;-58
2021/08/16 05:49:54;;;;;;;17.27;14.15;;;;;;;19.13;80.01;94510.03;1704442;83;21084;-58
2021/08/16 05:52:21;;;;;;;22.60;14.75;;;;;;;19.30;79.91;94501.05;1705165;81;21109;-58
2021/08/16 05:54:48;;;;;;;21.33;15.55;;;;;;;19.50;79.58;94514.70;1711205;81;21003;-58
2021/08/16 05:57:15;;;;;;;27.67;17.23;;;;;;;19.69;79.06;94511.49;1709469;81;21666;-59
2021/08/16 05:59:42;;;;;;;58.00;37.00;;;;;;;19.86;78.10;94519.19;1643159;83;21129;-59
2021/08/16 06:02:09;;;;;;;23.87;15.28;;;;;;;20.04;77.18;94519.27;1661255;83;20994;-58
2021/08/16 06:04:36;;;;;;;23.95;13.83;;;;;;;20.24;77.22;94525.30;1670758;83;21080;-61
2021/08/16 06:07:04;;;;;;;24.77;12.53;;;;;;;20.40;76.74;94522.41;1675380;83;21171;-59
2021/08/16 06:09:31;;;;;;;23.38;11.78;;;;;;;20.51;76.00;94524.38;1672454;83;21659;-60
2021/08/16 06:11:57;;;;;;;27.27;13.03;;;;;;;20.60;75.70;94539.47;1670391;83;21076;-58
2021/08/16 06:14:25;;;;;;;30.17;12.95;;;;;;;20.66;75.41;94549.34;1671765;83;21383;-57
2021/08/16 06:16:54;;;;;;;29.12;12.03;;;;;;;20.70;75.75;94566.60;1675429;83;21494;-56
2021/08/16 06:19:22;;;;;;;30.92;14.13;;;;;;;20.77;75.88;94577.22;1680857;83;21018;-60
2021/08/16 06:21:49;;;;;;;28.05;11.55;;;;;;;20.86;75.71;94581.78;1674074;83;21035;-58
2021/08/16 06:24:16;;;;;;;23.92;10.58;;;;;;;20.95;75.17;94592.67;1681426;83;21134;-58
2021/08/16 06:26:44;;;;;;;29.98;13.40;;;;;;;21.03;75.50;94596.43;1676068;83;21106;-61
2021/08/16 06:29:12;;;;;;;21.60;9.65;;;;;;;21.05;76.09;94581.28;1683511;84;21098;-58
2021/08/16 06:31:40;;;;;;;17.60;10.08;;;;;;;21.03;77.45;94590.84;1678055;83;21047;-59
2021/08/16 06:34:09;;;;;;;20.10;10.13;;;;;;;20.95;77.88;94591.28;1675012;83;21928;-56
2021/08/16 06:36:39;;;;;;;15.05;10.20;;;;;;;20.83;78.98;94594.78;1674073;84;21767;-56
2021/08/16 06:39:18;;;;;;;17.85;10.58;;;;;;;20.71;79.61;94595.33;1661203;83;21117;-59
2021/08/16 06:41:52;;;;;;;18.15;10.15;;;;;;;20.61;80.50;94612.27;1662431;85;20999;-59
2021/08/16 06:44:20;;;;;;;17.55;10.65;;;;;;;20.45;81.21;94606.88;1645614;84;21054;-61
2021/08/16 06:46:47;;;;;;;22.02;11.38;;;;;;;20.38;81.99;94580.85;1641794;85;21080;-57
2021/08/16 06:49:14;;;;;;;26.77;11.68;;;;;;;20.32;82.90;94576.55;1638272;85;21156;-60
2021/08/16 06:51:42;;;;;;;17.20;10.50;;;;;;;20.26;84.00;94559.84;1641444;85;21081;-58
2021/08/16 06:54:08;;;;;;;16.45;12.05;;;;;;;20.25;84.70;94523.39;1639257;85;21581;-60
2021/08/16 06:56:35;;;;;;;18.30;11.70;;;;;;;20.25;85.11;94535.97;1647283;85;21067;-56
2021/08/16 06:59:04;;;;;;;53.87;22.58;;;;;;;20.25;85.72;94532.40;1649463;84;21418;-56
2021/08/16 07:01:30;;;;;;;49.95;21.42;;;;;;;20.20;86.27;94535.98;1707197;81;22313;-67
2021/08/16 07:03:58;;;;;;;47.60;18.35;;;;;;;20.17;86.96;94514.67;1705152;82;21468;-59
2021/08/16 07:06:27;;;;;;;49.20;23.12;;;;;;;20.18;87.29;94508.55;1710794;82;21012;-58
2021/08/16 07:08:55;;;;;;;46.33;21.60;;;;;;;20.19;87.40;94512.12;1700750;82;21017;-58
2021/08/16 07:11:23;;;;;;;41.95;22.37;;;;;;;20.25;87.80;94524.02;1709894;81;21104;-61
2021/08/16 07:13:56;;;;;;;56.15;23.05;;;;;;;20.33;87.83;94536.16;1710822;81;21062;-61
2021/08/16 07:16:26;;;;;;;30.48;18.85;;;;;;;20.38;87.27;94538.19;1709390;81;21535;-58
2021/08/16 07:18:55;;;;;;;36.23;18.73;;;;;;;20.44;87.09;94541.70;1677486;81;21152;-58
2021/08/16 07:21:25;;;;;;;39.73;18.40;;;;;;;20.47;87.21;94546.27;1693188;81;21139;-58
2021/08/16 07:23:55;;;;;;;33.05;20.37;;;;;;;20.55;87.33;94544.45;1712447;81;21030;-58
2021/08/16 07:26:25;;;;;;;41.30;21.20;;;;;;;20.62;86.93;94553.69;1713542;82;23168;-59
2021/08/16 07:28:54;;;;;;;23.95;15.58;;;;;;;20.72;87.26;94547.92;1707758;81;21042;-58
2021/08/16 07:31:21;;;;;;;28.57;15.23;;;;;;;20.87;87.39;94551.91;1708763;81;21068;-59
2021/08/16 07:33:48;;;;;;;24.07;13.43;;;;;;;21.03;87.28;94546.84;1706338;81;21052;-60
2021/08/16 07:36:15;;;;;;;23.47;13.18;;;;;;;21.20;86.86;94529.30;1711676;82;21034;-57
2021/08/16 07:38:43;;;;;;;17.82;11.90;;;;;;;21.38;86.33;94522.27;1707813;81;21338;-56
2021/08/16 07:41:10;;;;;;;21.93;13.15;;;;;;;21.49;85.41;94534.12;1719855;81;21023;-56
2021/08/16 07:43:54;;;;;;;15.32;9.38;;;;;;;21.54;84.81;94528.36;1708163;82;21048;-60
2021/08/16 07:46:22;;;;;;;18.25;12.05;;;;;;;21.57;84.27;94528.08;1708455;81;21068;-60
2021/08/16 07:48:50;;;;;;;20.57;12.75;;;;;;;21.59;83.35;94538.11;1711441;81;21116;-58
2021/08/16 07:51:16;;;;;;;22.40;13.68;;;;;;;21.49;83.09;94544.57;1696992;82;21226;-59
2021/08/16 07:53:45;;;;;;;19.85;13.62;;;;;;;21.48;83.57;94545.85;1707712;81;21588;-57
2021/08/16 07:56:14;;;;;;;26.17;14.70;;;;;;;21.46;83.19;94547.77;1660471;83;21116;-57
2021/08/16 07:58:42;;;;;;;21.37;14.60;;;;;;;21.46;83.62;94558.22;1643392;84;21125;-57
2021/08/16 08:01:09;;;;;;;15.72;10.98;;;;;;;21.44;84.07;94564.33;1652834;84;21114;-58
2021/08/16 08:03:36;;;;;;;14.55;10.88;;;;;;;21.40;84.39;94583.45;1643593;84;21874;-60
2021/08/16 08:06:03;;;;;;;20.20;15.18;;;;;;;21.36;84.64;94596.98;1658170;84;21035;-58
2021/08/16 08:08:31;;;;;;;19.95;12.55;;;;;;;21.25;84.85;94590.70;1652109;85;21086;-58
2021/08/16 08:10:58;;;;;;;23.40;13.88;;;;;;;21.10;85.02;94547.67;1647401;85;21794;-60
2021/08/16 08:13:25;;;;;;;16.87;11.83;;;;;;;20.99;85.99;94520.42;1654498;85;21319;-58
2021/08/16 08:15:54;;;;;;;16.70;10.70;;;;;;;20.94;86.49;94522.63;1654264;85;21129;-58
2021/08/16 08:18:20;;;;;;;26.23;14.53;;;;;;;20.90;86.66;94526.35;1662583;84;21554;-58
2021/08/16 08:20:47;;;;;;;21.42;13.22;;;;;;;20.85;87.34;94522.94;1658250;84;21520;-60
2021/08/16 08:23:14;;;;;;;18.92;12.98;;;;;;;20.86;87.50;94527.25;1643586;84;21198;-59
2021/08/16 08:25:43;;;;;;;22.67;12.75;;;;;;;20.84;87.39;94524.21;1654565;85;21153;-58
2021/08/16 08:28:15;;;;;;;19.23;12.93;;;;;;;20.83;87.49;94510.88;1650755;84;21133;-58
2021/08/16 08:30:43;;;;;;;20.55;13.15;;;;;;;20.86;87.65;94499.28;1654069;84;21046;-60
2021/08/16 08:33:15;;;;;;;21.48;11.90;;;;;;;20.83;87.72;94485.72;1664309;84;21078;-60
2021/08/16 08:35:46;;;;;;;21.57;15.10;;;;;;;20.82;88.11;94484.17;1663496;84;21180;-60
2021/08/16 08:38:15;;;;;;;22.17;15.20;;;;;;;20.86;88.46;94477.68;1675230;83;21498;-58
2021/08/16 08:40:41;;;;;;;25.05;13.68;;;;;;;20.90;88.41;94480.95;1651663;85;21134;-58
2021/08/16 08:43:11;;;;;;;16.52;11.97;;;;;;;20.95;88.18;94484.33;1644031;85;21174;-56
2021/08/16 08:45:40;;;;;;;17.52;12.20;;;;;;;21.02;87.81;94492.18;1668002;84;21019;-59
2021/08/16 08:48:07;;;;;;;21.10;13.45;;;;;;;21.10;87.88;94489.58;1656084;84;21061;-57
2021/08/16 08:50:34;;;;;;;20.27;13.98;;;;;;;21.16;87.89;94472.86;1666683;85;21780;-56
2021/08/16 08:53:02;;;;;;;15.60;12.05;;;;;;;21.21;87.97;94472.67;1617600;86;21088;-57
2021/08/16 08:55:30;;;;;;;17.75;11.97;;;;;;;21.24;87.58;94466.03;1674600;83;21065;-58
2021/08/16 08:57:58;;;;;;;20.35;12.63;;;;;;;21.21;87.44;94483.24;1670453;83;21108;-58
2021/08/16 09:00:25;;;;;;;22.42;10.68;;;;;;;21.19;87.42;94490.63;1664624;83;21195;-57
2021/08/16 09:03:00;;;;;;;18.10;10.70;;;;;;;21.18;87.65;94475.13;1687470;83;21069;-58
2021/08/16 09:05:27;;;;;;;15.38;10.53;;;;;;;21.22;87.93;94463.00;1682734;83;22260;-57
2021/08/16 09:07:55;;;;;;;18.05;13.45;;;;;;;21.25;88.03;94454.33;1657726;84;21084;-58
2021/08/16 09:10:25;;;;;;;15.98;11.43;;;;;;;21.26;88.12;94476.09;1650147;84;21134;-59
2021/08/16 09:13:00;;;;;;;14.50;10.78;;;;;;;21.26;87.71;94463.49;1678057;84;21049;-58
2021/08/16 09:15:29;;;;;;;13.72;10.10;;;;;;;21.32;87.97;94466.98;1706298;82;21466;-58
2021/08/16 09:18:02;;;;;;;17.07;11.28;;;;;;;21.38;87.50;94455.09;1710825;82;21860;-58
2021/08/16 09:20:34;;;;;;;15.08;11.43;;;;;;;21.49;87.17;94454.98;1713300;81;21107;-58
2021/08/16 09:23:03;;;;;;;14.10;11.73;;;;;;;21.59;86.83;94466.70;1702565;81;21062;-60
2021/08/16 09:25:36;;;;;;;15.75;10.68;;;;;;;21.65;86.24;94459.69;1704690;82;21060;-59
2021/08/16 09:28:04;;;;;;;14.23;11.18;;;;;;;21.74;85.87;94460.72;1705080;81;21125;-58
2021/08/16 09:30:39;;;;;;;12.18;10.20;;;;;;;21.83;85.74;94458.31;1714577;81;21834;-59
2021/08/16 09:33:18;;;;;;;13.58;10.48;;;;;;;21.96;85.73;94459.05;1657877;84;21151;-57
2021/08/16 09:35:59;;;;;;;14.05;11.10;;;;;;;22.11;85.62;94446.88;1708076;81;21081;-59
2021/08/16 09:38:38;;;;;;;14.07;9.78;;;;;;;22.24;84.57;94453.98;1709043;81;21492;-57
2021/08/16 09:41:26;;;;;;;14.00;10.32;;;;;;;22.40;83.85;94444.62;1665305;83;21110;-57
2021/08/16 09:44:10;;;;;;;15.95;10.72;;;;;;;22.58;83.21;94443.84;1702227;82;21139;-59
2021/08/16 09:46:37;;;;;;;14.83;11.90;;;;;;;22.77;83.13;94450.83;1697526;82;21098;-58
2021/08/16 09:49:06;;;;;;;18.82;11.45;;;;;;;22.89;83.27;94447.33;1704359;82;21077;-58
2021/08/16 09:51:36;;;;;;;17.57;10.98;;;;;;;23.02;82.57;94447.36;1643952;85;20990;-59
2021/08/16 09:54:04;;;;;;;14.30;10.15;;;;;;;23.12;82.29;94438.69;1661310;83;20982;-59
2021/08/16 09:56:31;;;;;;;11.95;9.45;;;;;;;23.24;81.88;94444.20;1720185;81;21075;-57
2021/08/16 09:58:58;;;;;;;19.10;10.20;;;;;;;23.42;81.81;94441.97;1711938;82;21248;-60
2021/08/16 10:01:28;;;;;;;13.08;10.30;;;;;;;23.60;80.96;94439.72;1699155;82;21367;-59
2021/08/16 10:03:56;;;;;;;12.33;8.53;;;;;;;23.71;80.27;94445.14;1706204;82;21199;-58
2021/08/16 10:06:25;;;;;;;12.55;9.78;;;;;;;23.85;79.23;94434.05;1706107;81;21079;-60
2021/08/16 10:08:56;;;;;;;14.68;9.83;;;;;;;23.97;78.51;94432.51;1703975;82;21130;-58
2021/08/16 10:11:26;;;;;;;12.20;9.78;;;;;;;24.09;78.03;94425.38;1716583;81;21089;-58
2021/08/16 10:13:55;;;;;;;14.70;9.93;;;;;;;24.28;77.54;94417.55;1688720;81;21596;-58
2021/08/16 10:16:34;;;;;;;15.85;11.05;;;;;;;24.48;77.08;94422.47;1707256;81;21141;-61
2021/08/16 10:19:05;;;;;;;14.33;10.60;;;;;;;24.65;76.40;94421.48;1703240;82;21044;-58
2021/08/16 10:21:38;;;;;;;12.82;9.53;;;;;;;24.79;76.11;94417.31;1680782;82;21084;-59
2021/08/16 10:24:23;;;;;;;19.37;11.33;;;;;;;24.90;75.96;94410.77;1711184;81;21027;-59
2021/08/16 10:27:09;;;;;;;24.82;11.57;;;;;;;25.03;75.77;94418.39;1710917;81;22103;-58
2021/08/16 10:29:40;;;;;;;17.77;9.75;;;;;;;25.17;74.93;94402.94;1704220;81;21025;-58
2021/08/16 10:32:18;;;;;;;39.25;10.43;;;;;;;25.46;73.80;94411.57;1687703;82;21678;-58
2021/08/16 10:37:36;;;;;;;14.65;8.93;;;;;;;25.89;71.66;94403.98;1697745;82;21011;-58
2021/08/16 10:40:22;;;;;;;11.75;9.08;;;;;;;26.18;69.42;94403.41;1696901;82;21025;-57
2021/08/16 10:42:51;;;;;;;11.65;8.58;;;;;;;26.48;68.70;94397.16;1698751;82;21825;-59
2021/08/16 10:45:27;;;;;;;15.13;9.73;;;;;;;26.88;68.76;94397.52;1660626;83;21006;-57
2021/08/16 10:48:07;;;;;;;13.90;9.80;;;;;;;27.33;66.57;94396.20;1663453;85;21129;-59
2021/08/16 10:50:36;;;;;;;13.35;8.73;;;;;;;28.02;65.88;94389.93;1700542;82;21037;-57
2021/08/16 10:53:13;;;;;;;17.30;8.78;;;;;;;28.71;62.90;94386.27;1674205;83;21507;-59
2021/08/16 10:55:42;;;;;;;12.03;9.38;;;;;;;29.46;61.04;94387.98;1686351;83;21092;-58
2021/08/16 10:58:10;;;;;;;14.80;7.87;;;;;;;30.14;58.15;94383.19;1700177;82;21099;-57
2021/08/16 11:00:39;;;;;;;10.98;8.28;;;;;;;30.72;56.66;94375.21;1703026;82;21140;-59
2021/08/16 11:03:07;;;;;;;21.60;15.32;;;;;;;31.13;54.86;94374.30;1689989;82;21114;-58
2021/08/16 11:05:37;;;;;;;15.38;9.35;;;;;;;31.53;53.29;94373.19;1703853;83;21108;-59
2021/08/16 11:08:20;;;;;;;12.37;8.15;;;;;;;31.84;51.88;94372.78;1695343;82;21086;-57
2021/08/16 11:10:49;;;;;;;14.90;8.68;;;;;;;32.21;50.69;94366.40;1667712;83;21101;-59
2021/08/16 11:13:18;;;;;;;15.03;8.93;;;;;;;32.55;49.83;94366.77;1651996;84;21355;-60
2021/08/16 11:15:57;;;;;;;11.90;7.60;;;;;;;32.85;48.92;94366.16;1654256;85;21093;-56
2021/08/16 11:18:48;;;;;;;15.88;8.15;;;;;;;33.17;48.26;94361.36;1706455;81;21023;-60
2021/08/16 11:21:23;;;;;;;18.52;12.43;;;;;;;33.33;47.15;94358.26;1697461;81;21129;-59
2021/08/16 11:24:02;;;;;;;17.37;9.15;;;;;;;33.39;46.41;94354.39;1703710;81;21117;-62
2021/08/16 11:26:31;;;;;;;17.35;7.90;;;;;;;33.47;46.42;94360.68;1718050;81;22076;-56
2021/08/16 11:29:11;;;;;;;11.48;6.90;;;;;;;33.56;45.93;94349.89;1711999;81;21856;-57
2021/08/16 11:32:06;;;;;;;15.88;8.58;;;;;;;33.75;46.08;94346.96;1638300;84;21089;-57